createdAt,value
2023-02-24T00:02:04.533Z,94.10
2023-02-24T00:04:33.728Z,94.30
2023-02-24T00:07:02.914Z,95.00
2023-02-24T00:09:31.800Z,94.60
2023-02-24T00:12:05.961Z,94.30
2023-02-24T00:14:36.032Z,94.40
2023-02-24T00:17:04.209Z,95.10
2023-02-24T00:19:34.968Z,94.30
2023-02-24T00:22:04.669Z,94.80
2023-02-24T00:24:32.279Z,94.60
2023-02-24T00:27:02.127Z,95.50
2023-02-24T00:29:30.492Z,94.40
2023-02-24T00:32:00.726Z,96.00
2023-02-24T00:34:34.333Z,96.50
2023-02-24T00:37:02.462Z,94.90
2023-02-24T00:39:32.255Z,94.40
2023-02-24T00:42:06.897Z,95.20
2023-02-24T00:44:55.355Z,94.40
2023-02-24T00:47:23.334Z,94.10
2023-02-24T00:49:51.168Z,95.10
2023-02-24T00:52:20.987Z,94.20
2023-02-24T00:54:50.218Z,95.50
2023-02-24T00:57:19.986Z,94.50
2023-02-24T00:59:51.488Z,95.00
2023-02-24T01:02:22.137Z,94.80
2023-02-24T01:04:51.173Z,95.30
2023-02-24T01:07:19.983Z,94.20
2023-02-24T01:09:50.801Z,95.50
2023-02-24T01:12:38.499Z,95.40
2023-02-24T01:15:11.052Z,95.00
2023-02-24T01:17:40.122Z,94.90
2023-02-24T01:20:16.707Z,95.00
2023-02-24T01:22:53.016Z,94.90
2023-02-24T01:25:20.924Z,94.50
2023-02-24T01:27:48.745Z,95.90
2023-02-24T01:30:18.317Z,95.70
2023-02-24T01:32:47.475Z,95.70
2023-02-24T01:35:15.706Z,95.20
2023-02-24T01:37:43.331Z,95.10
2023-02-24T01:40:22.714Z,96.80
2023-02-24T01:42:50.377Z,94.70
2023-02-24T01:45:22.079Z,95.80
2023-02-24T01:47:50.864Z,95.40
2023-02-24T01:50:22.219Z,95.10
2023-02-24T01:52:56.223Z,95.20
2023-02-24T01:55:29.387Z,94.70
2023-02-24T01:58:00.418Z,95.50
2023-02-24T02:00:37.039Z,95.10
2023-02-24T02:03:13.321Z,94.80
2023-02-24T02:05:42.686Z,96.10
2023-02-24T02:08:11.203Z,95.00
2023-02-24T02:10:41.434Z,95.20
2023-02-24T02:13:09.104Z,95.10
2023-02-24T02:15:47.348Z,96.10
2023-02-24T02:18:38.325Z,95.80
2023-02-24T02:21:32.979Z,95.20
2023-02-24T02:24:26.566Z,95.20
2023-02-24T02:27:25.402Z,95.30
2023-02-24T02:30:19.591Z,95.50
2023-02-24T02:33:14.280Z,95.30
2023-02-24T02:35:47.515Z,95.50
2023-02-24T02:38:26.192Z,96.80
2023-02-24T02:41:17.729Z,95.60
2023-02-24T02:43:57.171Z,94.30
2023-02-24T02:46:38.491Z,96.30
2023-02-24T02:49:24.241Z,96.10
2023-02-24T02:51:59.805Z,95.30
2023-02-24T02:54:30.874Z,95.90
2023-02-24T02:57:16.660Z,97.00
2023-02-24T02:59:58.430Z,96.70
2023-02-24T03:02:30.928Z,96.00
2023-02-24T03:05:02.384Z,95.30
2023-02-24T03:07:37.672Z,95.60
2023-02-24T03:10:11.408Z,95.90
2023-02-24T03:12:41.392Z,95.60
2023-02-24T03:15:11.960Z,95.60
2023-02-24T03:17:45.442Z,95.90
2023-02-24T03:20:22.807Z,96.00
2023-02-24T03:23:16.808Z,96.40
2023-02-24T03:25:47.977Z,95.20
2023-02-24T03:28:34.113Z,96.60
2023-02-24T03:31:18.478Z,95.50
2023-02-24T03:34:06.102Z,96.50
2023-02-24T03:36:33.925Z,95.90
2023-02-24T03:39:02.294Z,96.40
2023-02-24T03:41:45.990Z,95.70
2023-02-24T03:44:14.963Z,96.30
2023-02-24T03:46:42.853Z,96.70
2023-02-24T03:49:16.794Z,95.80
2023-02-24T03:52:12.325Z,95.90
2023-02-24T03:54:59.383Z,95.80
2023-02-24T03:58:08.725Z,95.70
2023-02-24T04:00:56.250Z,96.00
2023-02-24T04:04:00.502Z,95.80
2023-02-24T04:06:57.972Z,95.80
2023-02-24T04:09:47.449Z,95.70
2023-02-24T04:12:28.172Z,95.60
2023-02-24T04:15:18.600Z,95.70
2023-02-24T04:18:13.220Z,95.70
2023-02-24T04:20:44.030Z,96.40
2023-02-24T04:23:20.263Z,96.00
2023-02-24T04:25:50.418Z,96.40
2023-02-24T04:28:22.357Z,96.80
2023-02-24T04:30:57.604Z,96.00
2023-02-24T04:33:25.741Z,96.50
2023-02-24T04:35:55.236Z,96.10
2023-02-24T04:38:24.178Z,96.00
2023-02-24T04:40:51.982Z,97.10
2023-02-24T04:43:19.543Z,97.20
2023-02-24T04:45:47.093Z,97.30
2023-02-24T04:48:14.889Z,96.10
2023-02-24T04:50:43.548Z,96.20
2023-02-24T04:53:13.519Z,95.70
2023-02-24T04:55:48.921Z,95.20
2023-02-24T04:58:19.463Z,96.10
2023-02-24T05:00:49.414Z,95.60
2023-02-24T05:03:17.465Z,94.80
2023-02-24T05:05:56.941Z,96.20
2023-02-24T05:08:25.392Z,95.40
2023-02-24T05:10:54.983Z,95.40
2023-02-24T05:13:28.131Z,94.90
2023-02-24T05:15:57.585Z,95.70
2023-02-24T05:18:26.060Z,94.90
2023-02-24T05:21:16.036Z,96.00
2023-02-24T05:23:46.108Z,96.00
2023-02-24T05:26:19.571Z,95.50
2023-02-24T05:28:52.616Z,95.40
2023-02-24T05:31:26.508Z,95.30
2023-02-24T05:33:59.445Z,95.40
2023-02-24T05:36:29.921Z,95.80
2023-02-24T05:39:12.568Z,95.30
2023-02-24T05:41:42.960Z,95.00
2023-02-24T05:44:22.646Z,94.60
2023-02-24T05:46:56.742Z,94.70
2023-02-24T05:49:28.172Z,94.80
2023-02-24T05:51:59.064Z,95.10
2023-02-24T05:54:39.906Z,95.20
2023-02-24T06:00:15.635Z,95.40
2023-02-24T06:02:49.829Z,94.80
2023-02-24T06:05:28.583Z,96.00
2023-02-24T06:08:10.177Z,95.30
2023-02-24T06:10:41.661Z,95.40
2023-02-24T06:13:10.436Z,97.30
2023-02-24T06:15:41.934Z,95.60
2023-02-24T06:18:18.980Z,95.30
2023-02-24T06:20:53.655Z,96.60
2023-02-24T06:23:26.837Z,94.30
2023-02-24T06:25:57.895Z,93.00
2023-02-24T06:28:25.404Z,96.00
2023-02-24T06:30:53.223Z,94.70
2023-02-24T06:33:23.154Z,96.10
2023-02-24T06:35:52.052Z,95.30
2023-02-24T06:38:19.856Z,95.30
2023-02-24T06:40:47.732Z,94.80
2023-02-24T06:43:15.544Z,95.70
2023-02-24T06:45:47.628Z,97.20
2023-02-24T06:48:21.272Z,96.00
2023-02-24T06:50:52.812Z,96.00
2023-02-24T06:53:21.924Z,95.30
2023-02-24T06:55:49.697Z,94.50
2023-02-24T06:58:20.220Z,95.90
2023-02-24T07:00:59.287Z,94.30
2023-02-24T07:03:39.833Z,93.70
2023-02-24T07:06:24.320Z,94.20
2023-02-24T07:09:01.024Z,94.50
2023-02-24T07:11:31.875Z,93.60
2023-02-24T07:14:05.882Z,96.10
2023-02-24T07:16:36.400Z,94.00
2023-02-24T07:19:11.425Z,93.70
2023-02-24T07:21:40.265Z,94.00
2023-02-24T07:24:40.363Z,92.80
2023-02-24T07:27:22.816Z,94.30
2023-02-24T07:29:53.353Z,93.90
2023-02-24T07:32:23.124Z,94.20
2023-02-24T07:34:50.859Z,93.50
2023-02-24T07:37:20.474Z,95.60
2023-02-24T07:39:49.264Z,94.20
2023-02-24T07:42:16.787Z,94.50
2023-02-24T07:44:49.299Z,94.70
2023-02-24T07:47:17.314Z,94.50
2023-02-24T07:49:46.308Z,94.60
2023-02-24T07:52:20.758Z,92.60
2023-02-24T07:54:51.178Z,93.30
2023-02-24T07:57:20.208Z,94.80
2023-02-24T07:59:51.474Z,94.70
2023-02-24T08:02:19.825Z,92.20
2023-02-24T08:04:51.646Z,94.30
2023-02-24T08:07:26.193Z,95.30
2023-02-24T08:10:12.059Z,93.80
2023-02-24T08:12:42.954Z,92.70
2023-02-24T08:15:17.527Z,94.10
2023-02-24T08:17:47.581Z,93.40
2023-02-24T08:20:17.997Z,94.40
2023-02-24T08:22:52.239Z,94.30
2023-02-24T08:25:23.130Z,94.90
2023-02-24T08:28:12.107Z,93.90
2023-02-24T08:30:47.269Z,93.70
2023-02-24T08:33:21.058Z,94.00
2023-02-24T08:36:02.320Z,94.00
2023-02-24T08:38:41.941Z,94.50
2023-02-24T08:41:18.265Z,93.80
2023-02-24T08:43:47.032Z,94.40
2023-02-24T08:46:21.574Z,93.20
2023-02-24T08:48:55.557Z,93.00
2023-02-24T08:51:35.176Z,93.30
2023-02-24T08:54:11.006Z,93.10
2023-02-24T08:56:44.100Z,93.80
2023-02-24T08:59:32.127Z,93.50
2023-02-24T09:02:18.844Z,93.50
2023-02-24T09:04:51.456Z,93.60
2023-02-24T09:07:35.637Z,94.00
2023-02-24T09:10:11.675Z,94.40
2023-02-24T09:12:42.603Z,94.30
2023-02-24T09:15:15.328Z,93.60
2023-02-24T09:17:44.914Z,93.60
2023-02-24T09:20:43.326Z,94.60
2023-02-24T09:23:20.127Z,93.20
2023-02-24T09:25:50.922Z,94.10
2023-02-24T09:28:25.014Z,93.80
2023-02-24T09:31:04.873Z,92.80
2023-02-24T09:33:39.196Z,95.20
2023-02-24T09:36:28.311Z,94.30
2023-02-24T09:39:01.895Z,93.80
2023-02-24T09:42:18.108Z,93.00
2023-02-24T09:44:53.050Z,93.90
2023-02-24T09:47:40.416Z,93.50
2023-02-24T09:50:46.887Z,94.30
2023-02-24T09:53:19.696Z,93.80
2023-02-24T09:56:01.749Z,94.90
2023-02-24T09:58:47.849Z,94.70
2023-02-24T10:01:31.340Z,92.90
2023-02-24T10:04:40.709Z,94.70
2023-02-24T10:07:14.278Z,94.20
2023-02-24T10:09:47.126Z,93.10
2023-02-24T10:12:20.997Z,94.70
2023-02-24T10:15:21.676Z,96.90
2023-02-24T10:17:59.003Z,94.00
2023-02-24T10:20:46.929Z,94.10
2023-02-24T10:23:57.513Z,95.60
2023-02-24T10:27:16.742Z,94.10
2023-02-24T10:44:00.869Z,94.80
2023-02-24T11:03:27.914Z,95.10
2023-02-24T11:10:02.553Z,96.10
2023-02-24T11:24:18.736Z,95.30
2023-02-24T11:31:59.828Z,95.20
2023-02-24T11:34:51.180Z,95.20
2023-02-24T11:37:59.761Z,95.60
2023-02-24T11:40:42.070Z,95.30
2023-02-24T11:43:16.234Z,95.50
2023-02-24T11:45:48.485Z,94.20
2023-02-24T11:48:27.525Z,95.50
2023-02-24T11:51:05.820Z,96.20
2023-02-24T11:54:05.777Z,95.60
2023-02-24T11:56:45.174Z,95.50
2023-02-24T11:59:19.291Z,95.40
2023-02-24T12:02:16.507Z,95.60
2023-02-24T12:05:14.967Z,95.20
2023-02-24T12:07:48.663Z,95.00
2023-02-24T12:10:48.703Z,94.70
2023-02-24T12:13:39.295Z,95.70
2023-02-24T12:16:21.120Z,96.00
2023-02-24T12:19:20.150Z,95.40
2023-02-24T12:22:05.650Z,95.40
2023-02-24T12:24:36.527Z,95.80
2023-02-24T12:27:46.605Z,95.40
2023-02-24T12:30:57.765Z,95.30
2023-02-24T12:34:00.519Z,95.00
2023-02-24T12:37:10.309Z,94.70
2023-02-24T12:48:39.859Z,94.70
2023-02-24T12:51:52.985Z,95.10
2023-02-24T12:54:50.710Z,95.10
2023-02-24T13:01:27.566Z,95.10
2023-02-24T13:04:01.306Z,95.50
2023-02-24T13:06:49.816Z,95.10
2023-02-24T13:09:43.566Z,94.30
2023-02-24T13:12:47.971Z,95.10
2023-02-24T13:15:22.815Z,94.90
2023-02-24T13:17:52.043Z,94.30
2023-02-24T13:20:35.331Z,94.10
2023-02-24T13:23:17.011Z,94.80
2023-02-24T13:25:54.647Z,94.10
2023-02-24T13:28:26.521Z,94.20
2023-02-24T13:31:07.936Z,93.40
2023-02-24T13:33:39.097Z,95.00
2023-02-24T13:39:53.757Z,94.30
2023-02-24T13:42:31.708Z,93.30
2023-02-24T13:45:09.930Z,93.90
2023-02-24T13:48:07.878Z,94.20
2023-02-24T13:50:57.674Z,94.50
2023-02-24T13:53:40.746Z,94.10
2023-02-24T13:56:30.125Z,94.30
2023-02-24T13:59:17.870Z,93.30
2023-02-24T14:01:59.312Z,92.10
2023-02-24T14:04:29.801Z,93.70
2023-02-24T14:07:03.636Z,92.70
2023-02-24T14:09:38.774Z,93.20
2023-02-24T14:12:23.501Z,93.40
2023-02-24T14:14:51.793Z,93.30
2023-02-24T14:17:43.137Z,93.20
2023-02-24T14:20:14.308Z,93.50
2023-02-24T14:22:53.221Z,92.70
2023-02-24T14:25:23.477Z,93.70
2023-02-24T14:27:52.691Z,93.60
2023-02-24T14:30:23.135Z,94.00
2023-02-24T14:32:50.994Z,94.20
2023-02-24T14:35:35.911Z,92.40
2023-02-24T14:38:04.924Z,91.80
2023-02-24T14:40:33.560Z,92.90
2023-02-24T14:43:00.964Z,91.90
2023-02-24T14:45:29.115Z,91.70
2023-02-24T14:47:57.530Z,91.40
2023-02-24T14:50:31.441Z,91.30
2023-02-24T14:53:06.826Z,91.30
2023-02-24T14:55:44.461Z,89.30
2023-02-24T14:58:31.714Z,91.30
2023-02-24T15:01:02.662Z,91.20
2023-02-24T15:03:45.759Z,91.90
2023-02-24T15:06:26.297Z,92.00
2023-02-24T15:09:07.941Z,92.60
2023-02-24T15:11:37.276Z,92.30
2023-02-24T15:14:08.250Z,91.80
2023-02-24T15:16:49.012Z,92.00
2023-02-24T15:19:37.072Z,92.70
2023-02-24T15:22:18.133Z,92.10
2023-02-24T15:24:45.645Z,91.90
2023-02-24T15:27:15.702Z,92.00
2023-02-24T15:29:44.473Z,91.20
2023-02-24T15:32:21.644Z,91.90
2023-02-24T15:34:49.355Z,92.00
2023-02-24T15:37:28.441Z,91.90
2023-02-24T15:40:27.821Z,92.30
2023-02-24T15:42:58.561Z,92.50
2023-02-24T15:45:36.207Z,92.20
2023-02-24T15:48:24.988Z,92.70
2023-02-24T15:50:53.074Z,92.80
2023-02-24T15:53:20.634Z,91.80
2023-02-24T15:55:48.163Z,92.00
2023-02-24T15:58:21.652Z,92.50
2023-02-24T16:00:53.225Z,92.90
2023-02-24T16:03:20.726Z,92.40
2023-02-24T16:05:48.146Z,91.90
2023-02-24T16:08:19.082Z,92.10
2023-02-24T16:10:46.922Z,92.80
2023-02-24T16:13:20.194Z,92.10
2023-02-24T16:15:48.319Z,92.70
2023-02-24T16:18:22.780Z,92.20
2023-02-24T16:20:57.081Z,92.80
2023-02-24T16:23:26.338Z,92.30
2023-02-24T16:25:58.906Z,92.60
2023-02-24T16:28:26.969Z,93.00
2023-02-24T16:30:54.485Z,92.50
2023-02-24T16:33:23.699Z,92.50
2023-02-24T16:35:55.206Z,92.40
2023-02-24T16:38:26.573Z,92.80
2023-02-24T16:40:55.591Z,92.70
2023-02-24T16:43:23.088Z,92.50
2023-02-24T16:45:53.971Z,92.30
2023-02-24T16:48:27.468Z,92.80
2023-02-24T16:50:55.050Z,93.00
2023-02-24T16:53:24.377Z,92.00
2023-02-24T16:55:52.172Z,93.30
2023-02-24T16:58:19.857Z,92.40
2023-02-24T17:00:50.018Z,92.40
2023-02-24T17:03:21.891Z,92.90
2023-02-24T17:05:50.048Z,93.40
2023-02-24T17:08:17.780Z,92.60
2023-02-24T17:10:46.532Z,92.60
2023-02-24T17:13:19.706Z,93.20
2023-02-24T17:15:47.816Z,93.40
2023-02-24T17:18:15.215Z,92.80
2023-02-24T17:20:43.197Z,92.50
2023-02-24T17:23:11.930Z,92.80
2023-02-24T17:25:39.496Z,93.10
2023-02-24T17:28:07.581Z,92.70
2023-02-24T17:30:36.132Z,93.00
2023-02-24T17:33:04.202Z,92.80
2023-02-24T17:35:31.814Z,93.20
2023-02-24T17:37:59.256Z,92.70
2023-02-24T17:40:26.687Z,92.70
2023-02-24T17:42:54.028Z,92.50
2023-02-24T17:45:21.562Z,92.70
2023-02-24T17:47:48.932Z,92.70
2023-02-24T17:50:16.942Z,92.60
2023-02-24T17:52:44.774Z,92.80
2023-02-24T17:55:12.211Z,93.10
2023-02-24T17:57:39.879Z,92.80
2023-02-24T18:00:09.277Z,92.90
2023-02-24T18:02:42.524Z,93.20
2023-02-24T18:05:10.332Z,92.70
2023-02-24T18:07:37.832Z,92.80
2023-02-24T18:10:06.095Z,92.80
2023-02-24T18:12:33.447Z,92.80
2023-02-24T18:15:08.700Z,92.50
2023-02-24T18:17:37.905Z,92.50
2023-02-24T18:20:07.430Z,93.10
2023-02-24T18:22:35.787Z,93.10
2023-02-24T18:25:03.960Z,93.10
2023-02-24T18:27:31.422Z,92.70
2023-02-24T18:29:58.766Z,92.60
2023-02-24T18:32:27.584Z,92.60
2023-02-24T18:34:55.676Z,92.40
2023-02-24T18:37:23.272Z,92.70
2023-02-24T18:39:53.018Z,92.50
2023-02-24T18:42:20.736Z,92.50
2023-02-24T18:44:48.191Z,92.80
2023-02-24T18:47:16.921Z,92.50
2023-02-24T18:49:44.334Z,92.10
2023-02-24T18:52:13.030Z,92.50
2023-02-24T18:54:40.517Z,92.80
2023-02-24T18:57:07.997Z,93.10
2023-02-24T18:59:35.399Z,92.60
2023-02-24T19:02:03.219Z,92.40
2023-02-24T19:04:30.722Z,92.50
2023-02-24T19:06:58.073Z,92.60
2023-02-24T19:09:25.573Z,92.30
2023-02-24T19:11:54.225Z,92.70
2023-02-24T19:14:22.648Z,92.40
2023-02-24T19:16:50.207Z,92.80
2023-02-24T19:19:17.798Z,92.60
2023-02-24T19:21:45.918Z,92.60
2023-02-24T19:24:14.131Z,92.60
2023-02-24T19:26:43.949Z,92.50
2023-02-24T19:29:12.008Z,92.60
2023-02-24T19:31:40.218Z,92.40
2023-02-24T19:34:11.703Z,92.30
2023-02-24T19:36:41.199Z,92.80
2023-02-24T19:39:14.625Z,93.00
2023-02-24T19:41:49.621Z,93.20
2023-02-24T19:48:56.473Z,93.10
2023-02-24T19:51:24.647Z,93.00
2023-02-24T19:53:54.925Z,92.30
2023-02-24T19:56:27.952Z,93.20
2023-02-24T19:58:57.511Z,93.10
2023-02-24T20:01:26.765Z,92.80
2023-02-24T20:03:56.564Z,92.40
2023-02-24T20:07:03.985Z,93.10
2023-02-24T20:14:07.358Z,93.40
2023-02-24T20:16:54.505Z,92.50
2023-02-24T20:23:53.203Z,93.50
2023-02-24T20:26:21.709Z,93.50
2023-02-24T20:28:49.468Z,92.70
2023-02-24T20:31:19.558Z,92.60
2023-02-24T20:33:49.152Z,92.90
2023-02-24T20:36:22.303Z,92.90
2023-02-24T20:38:51.253Z,93.00
2023-02-24T20:41:19.923Z,92.80
2023-02-24T20:43:47.999Z,93.30
2023-02-24T20:50:23.479Z,93.50
2023-02-24T20:52:50.979Z,92.60
2023-02-24T20:55:18.850Z,92.50
2023-02-24T20:57:46.482Z,92.50
2023-02-24T21:00:15.605Z,93.10
2023-02-24T21:02:43.618Z,92.80
2023-02-24T21:05:23.048Z,92.90
2023-02-24T21:07:50.720Z,93.40
2023-02-24T21:10:19.497Z,92.80
2023-02-24T21:12:47.327Z,92.70
2023-02-24T21:15:14.828Z,92.20
2023-02-24T21:17:42.479Z,92.90
2023-02-24T21:20:11.646Z,92.80
2023-02-24T21:22:40.542Z,93.00
2023-02-24T21:25:10.895Z,93.20
2023-02-24T21:27:40.769Z,93.10
2023-02-24T21:30:09.518Z,93.00
2023-02-24T21:32:37.334Z,93.00
2023-02-24T21:35:05.342Z,92.40
2023-02-24T21:37:34.876Z,92.80
2023-02-24T21:40:02.994Z,92.80
2023-02-24T21:42:30.712Z,93.70
2023-02-24T21:45:02.441Z,93.00
2023-02-24T21:47:33.090Z,93.20
2023-02-24T21:50:00.567Z,93.80
2023-02-24T21:52:30.084Z,93.50
2023-02-24T21:54:58.005Z,92.30
2023-02-24T21:57:25.915Z,92.80
2023-02-24T21:59:55.101Z,93.50
2023-02-24T22:02:22.697Z,92.90
2023-02-24T22:04:52.052Z,93.30
2023-02-24T22:07:19.496Z,93.00
2023-02-24T22:09:49.334Z,93.60
2023-02-24T22:12:16.697Z,93.20
2023-02-24T22:14:44.185Z,93.20
2023-02-24T22:17:11.788Z,93.00
2023-02-24T22:19:39.287Z,93.80
2023-02-24T22:22:08.961Z,93.20
2023-02-24T22:24:36.387Z,92.80
2023-02-24T22:27:06.962Z,93.10
2023-02-24T22:29:34.498Z,93.20
2023-02-24T22:32:05.222Z,93.70
2023-02-24T22:34:34.432Z,93.90
2023-02-24T22:37:01.920Z,93.30
2023-02-24T22:39:29.474Z,93.90
2023-02-24T22:42:00.015Z,93.70
2023-02-24T22:44:29.785Z,94.50
2023-02-24T22:46:58.278Z,93.20
2023-02-24T22:49:26.656Z,93.90
2023-02-24T22:51:55.137Z,93.10
2023-02-24T22:54:23.240Z,94.30
2023-02-24T22:56:50.786Z,95.40
2023-02-24T22:59:21.917Z,93.70
2023-02-24T23:01:54.704Z,93.60
2023-02-24T23:04:22.324Z,93.20
2023-02-24T23:06:55.375Z,93.70
2023-02-24T23:09:28.198Z,93.70
2023-02-24T23:11:58.762Z,93.60
2023-02-24T23:14:27.977Z,94.70
2023-02-24T23:16:55.843Z,93.90
2023-02-24T23:19:24.541Z,94.30
2023-02-24T23:21:54.060Z,94.10
2023-02-24T23:24:22.426Z,93.70
2023-02-24T23:26:58.536Z,93.90
2023-02-24T23:29:30.058Z,95.20
2023-02-24T23:31:58.433Z,93.40
2023-02-24T23:34:30.116Z,93.50
2023-02-24T23:36:59.214Z,94.10
2023-02-24T23:39:26.773Z,93.80
2023-02-24T23:41:57.562Z,93.80
2023-02-24T23:44:25.764Z,93.80
2023-02-24T23:46:58.578Z,94.00
2023-02-24T23:49:39.145Z,94.70
2023-02-24T23:52:16.042Z,94.40
2023-02-24T23:54:44.525Z,94.10
2023-02-24T23:57:12.088Z,94.10
2023-02-24T23:59:39.675Z,93.80
